Kenansville, North Carolina
Current Conditions -  °F | °C
As of 1:55 AM on Monday 22 Dec 2014 (Local Time) from KDPL Reporting Station
Light Rain Light Rain  
Wind Chill: 38°   Ceiling: 700
Heat Index: 41°   Visibility: 4mi
Dew Point: 40°   Wind: 5mph
Humidity: 98%   Direction: 20°NNE
Pressure: 30.15"   Gusts: NA
Location:  34.96°N, 77.96°W
Report Text: KDPL 220655Z AUTO 02004KT 4SM -RA OVC007 05/05 A3015 RMK AO2 P0004 T00480045
Loading
Personal Weather Stations






























Interactive Weather Map New forecast layout! Learn more

10-Day Weather Forecast

Advertisements
Track Severe Weather on mobile